createdAt,value
2019-05-06T00:02:08.927Z,4.50
2019-05-06T00:04:40.647Z,4.07
2019-05-06T00:07:09.665Z,2.97
2019-05-06T00:09:38.606Z,4.97
2019-05-06T00:12:16.764Z,3.13
2019-05-06T00:14:45.694Z,5.70
2019-05-06T00:17:14.810Z,5.07
2019-05-06T00:19:44.775Z,3.70
2019-05-06T00:22:23.796Z,3.87
2019-05-06T00:24:59.282Z,4.67
2019-05-06T00:27:38.743Z,5.43
2019-05-06T00:30:08.197Z,5.97
2019-05-06T00:35:45.040Z,4.97
2019-05-06T00:38:16.837Z,3.10
2019-05-06T00:40:47.345Z,3.60
2019-05-06T00:43:25.572Z,4.13
2019-05-06T00:45:56.716Z,4.97
2019-05-06T00:48:25.553Z,6.13
2019-05-06T00:50:54.445Z,2.97
2019-05-06T00:53:34.757Z,3.10
2019-05-06T00:56:04.623Z,3.00
2019-05-06T00:58:34.800Z,4.33
2019-05-06T01:03:38.132Z,3.37
2019-05-06T01:06:07.029Z,4.13
2019-05-06T01:08:37.509Z,3.20
2019-05-06T01:11:07.679Z,2.70
2019-05-06T01:13:51.710Z,3.50
2019-05-06T01:16:22.121Z,3.43
2019-05-06T01:18:54.108Z,2.40
2019-05-06T01:21:23.809Z,3.37
2019-05-06T01:24:03.800Z,3.53
2019-05-06T01:26:33.744Z,5.07
2019-05-06T01:29:03.978Z,4.83
2019-05-06T01:31:42.305Z,5.17
2019-05-06T01:36:49.105Z,4.80
2019-05-06T01:39:49.074Z,4.63
2019-05-06T01:42:26.618Z,4.73
2019-05-06T01:45:05.489Z,3.93
2019-05-06T01:47:37.529Z,3.43
2019-05-06T01:50:06.773Z,4.97
2019-05-06T01:52:35.786Z,5.40
2019-05-06T01:55:14.188Z,8.07
2019-05-06T01:57:44.458Z,5.07
2019-05-06T02:00:14.501Z,3.73
2019-05-06T02:02:57.551Z,4.13
2019-05-06T02:05:26.473Z,4.17
2019-05-06T02:07:55.377Z,3.40
2019-05-06T02:10:24.298Z,3.97
2019-05-06T02:13:08.430Z,5.63
2019-05-06T02:15:37.265Z,3.27
2019-05-06T02:18:07.308Z,3.60
2019-05-06T02:20:44.519Z,5.00
2019-05-06T02:23:25.530Z,4.87
2019-05-06T02:25:54.645Z,4.53
2019-05-06T02:28:23.810Z,6.57
2019-05-06T02:31:20.714Z,6.93
2019-05-06T02:34:05.158Z,3.90
2019-05-06T02:36:45.516Z,7.63
2019-05-06T02:39:15.498Z,4.07
2019-05-06T02:41:44.485Z,4.03
2019-05-06T02:44:23.884Z,5.27
2019-05-06T02:47:02.712Z,4.13
2019-05-06T02:49:36.025Z,3.50
2019-05-06T02:52:07.782Z,8.50
2019-05-06T02:54:45.816Z,4.80
2019-05-06T02:57:15.111Z,3.50
2019-05-06T02:59:44.384Z,3.97
2019-05-06T03:02:33.725Z,4.87
2019-05-06T03:04:55.941Z,5.97
2019-05-06T03:07:24.892Z,6.47
2019-05-06T03:09:53.890Z,4.67
2019-05-06T03:12:23.122Z,4.90
2019-05-06T03:15:03.346Z,6.70
2019-05-06T03:17:32.888Z,6.60
2019-05-06T03:20:04.456Z,6.40
2019-05-06T03:22:46.159Z,5.63
2019-05-06T03:25:28.129Z,4.10
2019-05-06T03:27:57.056Z,4.10
2019-05-06T03:30:28.843Z,5.40
2019-05-06T03:33:31.244Z,6.70
2019-05-06T03:35:44.232Z,4.40
2019-05-06T03:38:03.638Z,4.47
2019-05-06T03:40:36.139Z,5.37
2019-05-06T03:43:02.831Z,4.43
2019-05-06T03:46:14.290Z,4.40
2019-05-06T03:48:44.509Z,4.50
2019-05-06T03:51:13.776Z,4.87
2019-05-06T03:53:44.061Z,5.30
2019-05-06T03:56:23.861Z,5.30
2019-05-06T03:58:54.198Z,4.17
2019-05-06T04:01:24.018Z,3.73
2019-05-06T04:03:56.957Z,6.73
2019-05-06T04:06:24.301Z,3.77
2019-05-06T04:08:53.956Z,3.70
2019-05-06T04:11:25.101Z,4.23
2019-05-06T04:13:55.694Z,4.47
2019-05-06T04:17:07.742Z,4.17
2019-05-06T04:19:43.760Z,5.00
2019-05-06T04:22:23.580Z,6.33
2019-05-06T04:25:13.956Z,8.50
2019-05-06T04:27:53.756Z,4.73
2019-05-06T04:30:24.304Z,3.63
2019-05-06T04:32:53.478Z,4.93
2019-05-06T04:35:35.373Z,5.33
2019-05-06T04:39:13.269Z,4.87
2019-05-06T04:41:13.633Z,4.67
2019-05-06T04:51:24.918Z,7.37
2019-05-06T04:53:55.246Z,6.90
2019-05-06T04:56:36.351Z,6.73
2019-05-06T04:59:06.820Z,4.40
2019-05-06T05:01:36.167Z,5.83
2019-05-06T05:04:28.484Z,6.20
2019-05-06T05:06:46.325Z,5.27
2019-05-06T05:09:17.393Z,5.20
2019-05-06T05:11:53.227Z,4.93
2019-05-06T05:14:42.183Z,10.47
2019-05-06T05:17:17.694Z,11.27
2019-05-06T05:19:47.111Z,14.57
2019-05-06T05:22:16.155Z,6.23
2019-05-06T05:24:53.949Z,7.30
2019-05-06T05:27:22.957Z,5.10
2019-05-06T05:29:52.287Z,6.90
2019-05-06T05:32:22.539Z,5.90
2019-05-06T05:35:04.122Z,7.43
2019-05-06T05:37:34.403Z,6.97
2019-05-06T05:40:03.367Z,7.97
2019-05-06T05:42:39.773Z,7.53
2019-05-06T05:45:28.467Z,6.63
2019-05-06T05:48:52.140Z,6.10
2019-05-06T11:11:20.074Z,7.37
2019-05-06T11:13:47.828Z,7.13
2019-05-06T11:20:06.503Z,7.40
2019-05-06T11:21:24.538Z,4.90
2019-05-06T11:24:06.173Z,5.92
2019-05-06T11:26:26.112Z,6.85
2019-05-06T11:31:58.495Z,7.03
2019-05-06T11:34:49.940Z,6.90
2019-05-06T11:40:17.024Z,5.63
2019-05-06T11:42:52.888Z,9.03
2019-05-06T11:45:22.907Z,10.43
2019-05-06T11:48:03.023Z,8.43
2019-05-06T11:50:33.421Z,8.70
2019-05-06T11:53:02.620Z,10.43
2019-05-06T11:55:38.029Z,9.97
2019-05-06T11:58:36.684Z,8.60
2019-05-06T12:01:13.293Z,8.80
2019-05-06T12:03:42.777Z,6.47
2019-05-06T12:06:14.161Z,6.67
2019-05-06T12:08:55.136Z,13.63
2019-05-06T12:11:24.223Z,9.17
2019-05-06T12:13:58.738Z,8.57
2019-05-06T12:16:28.761Z,9.60
2019-05-06T12:19:08.731Z,12.77
2019-05-06T12:49:29.566Z,8.60
2019-05-06T12:51:58.804Z,7.87
2019-05-06T12:54:37.680Z,9.90
2019-05-06T13:01:45.556Z,9.20
2019-05-06T13:04:14.717Z,8.53
2019-05-06T13:06:49.048Z,7.00
2019-05-06T13:09:33.307Z,9.00
2019-05-06T13:29:25.819Z,8.87
2019-05-06T13:43:32.668Z,6.83
2019-05-06T13:46:07.128Z,12.87
2019-05-06T15:31:45.780Z,12.10
2019-05-06T15:34:19.755Z,24.40
2019-05-06T15:37:53.545Z,17.70
2019-05-06T15:54:53.350Z,8.03
2019-05-06T15:57:23.075Z,6.43
2019-05-06T16:00:02.671Z,7.33
2019-05-06T16:02:33.901Z,5.23
2019-05-06T16:05:11.199Z,9.43
2019-05-06T16:07:38.126Z,6.37
2019-05-06T16:38:46.688Z,4.80
2019-05-06T16:51:39.126Z,4.07
2019-05-06T16:54:14.926Z,6.30
2019-05-06T16:56:48.404Z,6.80
2019-05-06T16:59:23.599Z,4.83
2019-05-06T17:02:02.388Z,7.80
2019-05-06T17:04:52.619Z,4.30
2019-05-06T17:07:25.973Z,7.87
2019-05-06T18:53:15.896Z,8.73
2019-05-06T18:55:45.196Z,7.40
2019-05-06T18:58:14.335Z,4.37
2019-05-06T19:00:47.132Z,6.23
2019-05-06T19:03:54.904Z,6.37
2019-05-06T19:06:24.114Z,6.57
2019-05-06T19:08:59.656Z,5.50
2019-05-06T19:11:29.320Z,5.67
2019-05-06T19:16:51.811Z,9.03
2019-05-06T19:19:16.554Z,4.50
2019-05-06T19:22:03.985Z,5.83
2019-05-06T19:24:33.859Z,6.03
2019-05-06T19:27:04.050Z,6.40
2019-05-06T19:29:33.764Z,5.40
